sensor_id;sensor_type;location;lat;lon;timestamp;pressure;altitude;pressure_sealevel;temperature;humidity
11001;BME280;5553;48.506;8.870;2022-12-18T00:02:05;97463.31;;;-15.87;100.00
11001;BME280;5553;48.506;8.870;2022-12-18T00:04:33;97466.72;;;-15.94;100.00
11001;BME280;5553;48.506;8.870;2022-12-18T00:07:01;97470.88;;;-15.78;100.00
11001;BME280;5553;48.506;8.870;2022-12-18T00:09:30;97477.63;;;-15.83;100.00
11001;BME280;5553;48.506;8.870;2022-12-18T00:12:01;97469.00;;;-15.54;100.00
11001;BME280;5553;48.506;8.870;2022-12-18T00:14:29;97462.19;;;-15.46;100.00
11001;BME280;5553;48.506;8.870;2022-12-18T00:16:57;97459.91;;;-15.78;100.00
11001;BME280;5553;48.506;8.870;2022-12-18T00:19:27;97475.13;;;-15.87;100.00
11001;BME280;5553;48.506;8.870;2022-12-18T00:21:55;97473.38;;;-15.74;100.00
11001;BME280;5553;48.506;8.870;2022-12-18T00:24:23;97477.59;;;-15.72;100.00
11001;BME280;5553;48.506;8.870;2022-12-18T00:26:52;97470.81;;;-15.68;100.00
11001;BME280;5553;48.506;8.870;2022-12-18T00:29:23;97472.41;;;-15.55;100.00
11001;BME280;5553;48.506;8.870;2022-12-18T00:31:51;97466.53;;;-15.65;100.00
11001;BME280;5553;48.506;8.870;2022-12-18T00:34:19;97467.47;;;-15.73;100.00
11001;BME280;5553;48.506;8.870;2022-12-18T00:36:47;97463.47;;;-16.17;100.00
11001;BME280;5553;48.506;8.870;2022-12-18T00:39:16;97468.28;;;-15.68;100.00
11001;BME280;5553;48.506;8.870;2022-12-18T00:41:44;97468.91;;;-15.40;100.00
11001;BME280;5553;48.506;8.870;2022-12-18T00:44:27;97468.88;;;-15.36;100.00
11001;BME280;5553;48.506;8.870;2022-12-18T00:46:56;97462.13;;;-15.37;100.00
11001;BME280;5553;48.506;8.870;2022-12-18T00:49:24;97468.06;;;-15.39;100.00
11001;BME280;5553;48.506;8.870;2022-12-18T00:51:53;97470.72;;;-15.62;100.00
11001;BME280;5553;48.506;8.870;2022-12-18T00:54:23;97474.94;;;-15.63;100.00
11001;BME280;5553;48.506;8.870;2022-12-18T00:56:51;97472.34;;;-15.52;100.00
11001;BME280;5553;48.506;8.870;2022-12-18T00:59:20;97484.28;;;-15.66;100.00
11001;BME280;5553;48.506;8.870;2022-12-18T01:01:51;97481.63;;;-15.48;100.00
11001;BME280;5553;48.506;8.870;2022-12-18T01:04:19;97482.44;;;-15.46;100.00
11001;BME280;5553;48.506;8.870;2022-12-18T01:06:48;97472.59;;;-15.87;100.00
11001;BME280;5553;48.506;8.870;2022-12-18T01:09:16;97469.09;;;-15.66;100.00
11001;BME280;5553;48.506;8.870;2022-12-18T01:11:44;97478.13;;;-15.33;100.00
11001;BME280;5553;48.506;8.870;2022-12-18T01:14:13;97472.25;;;-15.37;100.00
11001;BME280;5553;48.506;8.870;2022-12-18T01:16:41;97484.78;;;-15.21;100.00
11001;BME280;5553;48.506;8.870;2022-12-18T01:19:12;97479.88;;;-15.40;100.00
11001;BME280;5553;48.506;8.870;2022-12-18T01:21:40;97475.53;;;-15.22;100.00
11001;BME280;5553;48.506;8.870;2022-12-18T01:24:11;97485.66;;;-15.25;100.00
11001;BME280;5553;48.506;8.870;2022-12-18T01:26:40;97484.00;;;-15.26;100.00
11001;BME280;5553;48.506;8.870;2022-12-18T01:29:08;97483.28;;;-15.47;100.00
11001;BME280;5553;48.506;8.870;2022-12-18T01:31:36;97488.38;;;-15.50;100.00
11001;BME280;5553;48.506;8.870;2022-12-18T01:34:05;97479.72;;;-15.17;100.00
11001;BME280;5553;48.506;8.870;2022-12-18T01:36:38;97486.41;;;-15.11;100.00
11001;BME280;5553;48.506;8.870;2022-12-18T01:39:10;97480.50;;;-15.07;100.00
11001;BME280;5553;48.506;8.870;2022-12-18T01:41:39;97471.84;;;-16.11;100.00
11001;BME280;5553;48.506;8.870;2022-12-18T01:44:53;97485.44;;;-16.36;100.00
11001;BME280;5553;48.506;8.870;2022-12-18T01:47:24;97489.41;;;-15.80;100.00
11001;BME280;5553;48.506;8.870;2022-12-18T01:49:54;97480.72;;;-15.42;100.00
11001;BME280;5553;48.506;8.870;2022-12-18T01:52:26;97479.63;;;-15.06;100.00
11001;BME280;5553;48.506;8.870;2022-12-18T01:54:57;97480.66;;;-14.41;100.00
11001;BME280;5553;48.506;8.870;2022-12-18T01:57:26;97483.31;;;-14.50;100.00
11001;BME280;5553;48.506;8.870;2022-12-18T01:59:59;97483.50;;;-14.68;100.00
11001;BME280;5553;48.506;8.870;2022-12-18T02:02:28;97479.97;;;-14.52;100.00
11001;BME280;5553;48.506;8.870;2022-12-18T02:04:57;97483.75;;;-14.16;100.00
11001;BME280;5553;48.506;8.870;2022-12-18T02:07:33;97478.78;;;-14.22;100.00
11001;BME280;5553;48.506;8.870;2022-12-18T02:10:10;97481.34;;;-14.26;100.00
11001;BME280;5553;48.506;8.870;2022-12-18T02:12:43;97492.16;;;-14.11;100.00
11001;BME280;5553;48.506;8.870;2022-12-18T02:15:19;97489.25;;;-13.81;100.00
11001;BME280;5553;48.506;8.870;2022-12-18T02:17:53;97498.50;;;-13.76;100.00
11001;BME280;5553;48.506;8.870;2022-12-18T02:20:27;97490.06;;;-13.78;100.00
11001;BME280;5553;48.506;8.870;2022-12-18T02:23:07;97482.16;;;-13.55;100.00
11001;BME280;5553;48.506;8.870;2022-12-18T02:26:01;97478.66;;;-13.48;100.00
11001;BME280;5553;48.506;8.870;2022-12-18T02:28:36;97492.91;;;-13.38;100.00
11001;BME280;5553;48.506;8.870;2022-12-18T02:31:11;97488.69;;;-13.39;100.00
11001;BME280;5553;48.506;8.870;2022-12-18T02:33:43;97502.88;;;-13.24;100.00
11001;BME280;5553;48.506;8.870;2022-12-18T02:36:13;97513.03;;;-13.24;100.00
11001;BME280;5553;48.506;8.870;2022-12-18T02:38:44;97511.88;;;-13.06;100.00
11001;BME280;5553;48.506;8.870;2022-12-18T02:41:16;97507.66;;;-13.05;100.00
11001;BME280;5553;48.506;8.870;2022-12-18T02:43:47;97517.28;;;-13.24;100.00
11001;BME280;5553;48.506;8.870;2022-12-18T02:46:31;97519.56;;;-13.09;100.00
11001;BME280;5553;48.506;8.870;2022-12-18T02:49:06;97517.94;;;-13.15;100.00
11001;BME280;5553;48.506;8.870;2022-12-18T02:51:47;97512.56;;;-13.52;100.00
11001;BME280;5553;48.506;8.870;2022-12-18T02:54:26;97511.25;;;-13.20;100.00
11001;BME280;5553;48.506;8.870;2022-12-18T02:57:07;97511.44;;;-13.29;100.00
11001;BME280;5553;48.506;8.870;2022-12-18T02:59:40;97512.31;;;-13.33;100.00
11001;BME280;5553;48.506;8.870;2022-12-18T03:02:19;97512.75;;;-13.07;100.00
11001;BME280;5553;48.506;8.870;2022-12-18T03:04:53;97500.03;;;-13.07;100.00
11001;BME280;5553;48.506;8.870;2022-12-18T03:07:27;97502.66;;;-13.11;100.00
11001;BME280;5553;48.506;8.870;2022-12-18T03:10:01;97509.44;;;-13.14;100.00
11001;BME280;5553;48.506;8.870;2022-12-18T03:12:36;97510.16;;;-13.04;100.00
11001;BME280;5553;48.506;8.870;2022-12-18T03:15:09;97512.53;;;-12.93;100.00
11001;BME280;5553;48.506;8.870;2022-12-18T03:17:42;97514.28;;;-12.95;100.00
11001;BME280;5553;48.506;8.870;2022-12-18T03:20:15;97514.91;;;-12.82;100.00
11001;BME280;5553;48.506;8.870;2022-12-18T03:22:49;97517.31;;;-12.73;100.00
11001;BME280;5553;48.506;8.870;2022-12-18T03:25:20;97518.91;;;-12.69;100.00
11001;BME280;5553;48.506;8.870;2022-12-18T03:27:55;97521.56;;;-12.75;100.00
11001;BME280;5553;48.506;8.870;2022-12-18T03:30:25;97511.47;;;-12.78;100.00
11001;BME280;5553;48.506;8.870;2022-12-18T03:33:00;97519.75;;;-12.69;100.00
11001;BME280;5553;48.506;8.870;2022-12-18T03:35:33;97514.84;;;-12.79;100.00
11001;BME280;5553;48.506;8.870;2022-12-18T03:38:03;97520.53;;;-12.65;100.00
11001;BME280;5553;48.506;8.870;2022-12-18T03:40:35;97535.13;;;-12.75;100.00
11001;BME280;5553;48.506;8.870;2022-12-18T03:43:17;97518.88;;;-12.64;100.00
11001;BME280;5553;48.506;8.870;2022-12-18T03:45:52;97514.72;;;-12.72;100.00
11001;BME280;5553;48.506;8.870;2022-12-18T03:48:28;97517.34;;;-12.75;100.00
11001;BME280;5553;48.506;8.870;2022-12-18T03:50:59;97518.41;;;-12.90;100.00
11001;BME280;5553;48.506;8.870;2022-12-18T03:53:35;97513.19;;;-12.82;100.00
11001;BME280;5553;48.506;8.870;2022-12-18T03:56:06;97512.53;;;-12.92;100.00
11001;BME280;5553;48.506;8.870;2022-12-18T03:58:40;97511.88;;;-13.06;100.00
11001;BME280;5553;48.506;8.870;2022-12-18T04:01:12;97502.94;;;-13.28;100.00
11001;BME280;5553;48.506;8.870;2022-12-18T04:03:42;97513.91;;;-13.26;100.00
11001;BME280;5553;48.506;8.870;2022-12-18T04:06:13;97516.50;;;-13.31;100.00
11001;BME280;5553;48.506;8.870;2022-12-18T04:08:43;97514.97;;;-13.41;100.00
11001;BME280;5553;48.506;8.870;2022-12-18T04:11:12;97514.97;;;-13.41;100.00
11001;BME280;5553;48.506;8.870;2022-12-18T04:13:43;97515.84;;;-13.44;100.00
11001;BME280;5553;48.506;8.870;2022-12-18T04:16:12;97525.22;;;-13.49;100.00
11001;BME280;5553;48.506;8.870;2022-12-18T04:18:40;97529.25;;;-13.32;100.00
11001;BME280;5553;48.506;8.870;2022-12-18T04:21:10;97524.06;;;-13.26;100.00
11001;BME280;5553;48.506;8.870;2022-12-18T07:12:50;97578.69;;;-15.55;100.00
11001;BME280;5553;48.506;8.870;2022-12-18T07:15:18;97586.25;;;-15.52;100.00
11001;BME280;5553;48.506;8.870;2022-12-18T07:17:47;97582.06;;;-15.62;100.00
11001;BME280;5553;48.506;8.870;2022-12-18T07:20:15;97586.19;;;-15.43;100.00
11001;BME280;5553;48.506;8.870;2022-12-18T07:22:44;97587.03;;;-15.35;100.00
11001;BME280;5553;48.506;8.870;2022-12-18T07:25:12;97577.75;;;-15.39;100.00
11001;BME280;5553;48.506;8.870;2022-12-18T07:27:40;97576.09;;;-15.46;100.00
11001;BME280;5553;48.506;8.870;2022-12-18T07:30:12;97586.13;;;-15.26;100.00
11001;BME280;5553;48.506;8.870;2022-12-18T07:32:40;97586.41;;;-15.75;100.00
11001;BME280;5553;48.506;8.870;2022-12-18T07:35:09;97584.84;;;-16.19;100.00
11001;BME280;5553;48.506;8.870;2022-12-18T07:37:37;97574.78;;;-16.50;100.00
11001;BME280;5553;48.506;8.870;2022-12-18T07:40:07;97583.19;;;-16.48;100.00
11001;BME280;5553;48.506;8.870;2022-12-18T07:42:36;97572.19;;;-16.22;100.00
11001;BME280;5553;48.506;8.870;2022-12-18T07:45:05;97578.03;;;-15.92;100.00
11001;BME280;5553;48.506;8.870;2022-12-18T07:47:37;97584.53;;;-15.45;100.00
11001;BME280;5553;48.506;8.870;2022-12-18T07:50:07;97583.66;;;-15.43;100.00
11001;BME280;5553;48.506;8.870;2022-12-18T07:52:35;97583.78;;;-15.64;100.00
11001;BME280;5553;48.506;8.870;2022-12-18T07:55:05;97580.34;;;-15.49;100.00
11001;BME280;5553;48.506;8.870;2022-12-18T07:57:33;97584.34;;;-15.15;100.00
11001;BME280;5553;48.506;8.870;2022-12-18T08:00:02;97586.69;;;-14.84;100.00
11001;BME280;5553;48.506;8.870;2022-12-18T08:02:30;97586.50;;;-14.58;100.00
11001;BME280;5553;48.506;8.870;2022-12-18T08:05:01;97585.69;;;-14.62;100.00
11001;BME280;5553;48.506;8.870;2022-12-18T08:07:29;97577.00;;;-14.41;100.00
11001;BME280;5553;48.506;8.870;2022-12-18T08:09:57;97579.53;;;-14.38;100.00
11001;BME280;5553;48.506;8.870;2022-12-18T08:12:26;97571.22;;;-14.53;100.00
11001;BME280;5553;48.506;8.870;2022-12-18T08:14:54;97571.03;;;-14.34;100.00
11001;BME280;5553;48.506;8.870;2022-12-18T08:17:22;97581.84;;;-14.16;100.00
11001;BME280;5553;48.506;8.870;2022-12-18T08:19:51;97574.47;;;-13.61;100.00
11001;BME280;5553;48.506;8.870;2022-12-18T08:22:22;97579.25;;;-13.38;100.00
11001;BME280;5553;48.506;8.870;2022-12-18T08:24:50;97572.19;;;-13.80;100.00
11001;BME280;5553;48.506;8.870;2022-12-18T08:27:18;97577.91;;;-13.65;100.00
11001;BME280;5553;48.506;8.870;2022-12-18T08:29:46;97572.69;;;-13.52;100.00
11001;BME280;5553;48.506;8.870;2022-12-18T08:32:15;97571.97;;;-13.03;100.00
11001;BME280;5553;48.506;8.870;2022-12-18T08:34:43;97568.72;;;-13.13;100.00
11001;BME280;5553;48.506;8.870;2022-12-18T08:37:11;97568.81;;;-13.18;100.00
11001;BME280;5553;48.506;8.870;2022-12-18T08:39:42;97569.91;;;-13.34;100.00
11001;BME280;5553;48.506;8.870;2022-12-18T08:42:11;97574.78;;;-13.23;100.00
11001;BME280;5553;48.506;8.870;2022-12-18T08:44:51;97572.41;;;-13.29;100.00
11001;BME280;5553;48.506;8.870;2022-12-18T08:47:20;97568.22;;;-13.35;100.00
11001;BME280;5553;48.506;8.870;2022-12-18T08:49:48;97564.00;;;-13.36;100.00
11001;BME280;5553;48.506;8.870;2022-12-18T08:52:16;97563.25;;;-12.85;100.00
11001;BME280;5553;48.506;8.870;2022-12-18T08:54:47;97559.53;;;-13.22;100.00
11001;BME280;5553;48.506;8.870;2022-12-18T08:57:16;97550.09;;;-13.14;100.00
11001;BME280;5553;48.506;8.870;2022-12-18T08:59:44;97551.03;;;-12.63;100.00
11001;BME280;5553;48.506;8.870;2022-12-18T09:02:14;97550.13;;;-12.59;100.00
11001;BME280;5553;48.506;8.870;2022-12-18T09:04:42;97555.91;;;-12.51;100.00
11001;BME280;5553;48.506;8.870;2022-12-18T09:07:10;97556.00;;;-12.06;100.00
11001;BME280;5553;48.506;8.870;2022-12-18T09:09:39;97545.84;;;-11.66;100.00
11001;BME280;5553;48.506;8.870;2022-12-18T09:12:09;97549.75;;;-11.48;100.00
11001;BME280;5553;48.506;8.870;2022-12-18T09:14:38;97540.72;;;-11.24;100.00
11001;BME280;5553;48.506;8.870;2022-12-18T09:17:06;97530.41;;;-11.58;100.00
11001;BME280;5553;48.506;8.870;2022-12-18T09:19:34;97527.09;;;-12.50;100.00
11001;BME280;5553;48.506;8.870;2022-12-18T09:22:03;97527.88;;;-12.48;100.00
11001;BME280;5553;48.506;8.870;2022-12-18T09:24:31;97530.56;;;-12.08;100.00
11001;BME280;5553;48.506;8.870;2022-12-18T09:27:00;97527.28;;;-11.71;100.00
11001;BME280;5553;48.506;8.870;2022-12-18T09:29:32;97526.88;;;-11.91;100.00
11001;BME280;5553;48.506;8.870;2022-12-18T09:32:00;97535.88;;;-11.36;100.00
11001;BME280;5553;48.506;8.870;2022-12-18T09:34:28;97530.94;;;-11.04;100.00
11001;BME280;5553;48.506;8.870;2022-12-18T09:36:57;97521.84;;;-11.56;100.00
11001;BME280;5553;48.506;8.870;2022-12-18T09:39:25;97519.09;;;-11.08;100.00
11001;BME280;5553;48.506;8.870;2022-12-18T09:41:55;97516.00;;;-10.83;100.00
11001;BME280;5553;48.506;8.870;2022-12-18T09:44:27;97517.00;;;-10.55;100.00
11001;BME280;5553;48.506;8.870;2022-12-18T09:47:12;97511.69;;;-10.14;100.00
11001;BME280;5553;48.506;8.870;2022-12-18T09:49:42;97512.13;;;-9.67;100.00
11001;BME280;5553;48.506;8.870;2022-12-18T09:52:16;97511.06;;;-9.60;100.00
11001;BME280;5553;48.506;8.870;2022-12-18T09:54:49;97507.72;;;-9.34;100.00
11001;BME280;5553;48.506;8.870;2022-12-18T09:57:22;97497.00;;;-9.17;100.00
11001;BME280;5553;48.506;8.870;2022-12-18T09:59:55;97483.31;;;-8.88;100.00
11001;BME280;5553;48.506;8.870;2022-12-18T10:02:30;97501.72;;;-8.50;100.00
11001;BME280;5553;48.506;8.870;2022-12-18T10:05:06;97495.91;;;-8.05;100.00
11001;BME280;5553;48.506;8.870;2022-12-18T10:07:47;97503.31;;;-7.98;100.00
11001;BME280;5553;48.506;8.870;2022-12-18T10:10:25;97489.28;;;-7.88;100.00
11001;BME280;5553;48.506;8.870;2022-12-18T10:12:59;97475.25;;;-7.32;100.00
11001;BME280;5553;48.506;8.870;2022-12-18T10:15:33;97467.59;;;-7.10;100.00
11001;BME280;5553;48.506;8.870;2022-12-18T10:18:19;97475.63;;;-6.75;100.00
11001;BME280;5553;48.506;8.870;2022-12-18T10:20:53;97471.22;;;-6.72;100.00
11001;BME280;5553;48.506;8.870;2022-12-18T10:23:27;97463.28;;;-6.25;100.00
11001;BME280;5553;48.506;8.870;2022-12-18T10:26:02;97484.78;;;-5.67;100.00
11001;BME280;5553;48.506;8.870;2022-12-18T10:28:33;97477.56;;;-4.85;100.00
11001;BME280;5553;48.506;8.870;2022-12-18T10:31:02;97478.88;;;-4.42;100.00
11001;BME280;5553;48.506;8.870;2022-12-18T10:33:35;97450.66;;;-4.97;99.13
11001;BME280;5553;48.506;8.870;2022-12-18T10:36:04;97445.78;;;-4.49;97.49
11001;BME280;5553;48.506;8.870;2022-12-18T10:38:32;97447.03;;;-4.58;95.66
11001;BME280;5553;48.506;8.870;2022-12-18T10:41:03;97447.22;;;-4.26;95.14
11001;BME280;5553;48.506;8.870;2022-12-18T10:43:35;97452.22;;;-5.31;95.98
11001;BME280;5553;48.506;8.870;2022-12-18T10:46:14;97451.84;;;-5.04;97.04
11001;BME280;5553;48.506;8.870;2022-12-18T10:48:56;97470.75;;;-4.52;98.23
11001;BME280;5553;48.506;8.870;2022-12-18T10:51:28;97473.97;;;-4.29;97.77
11001;BME280;5553;48.506;8.870;2022-12-18T10:54:00;97458.56;;;-4.13;97.03
11001;BME280;5553;48.506;8.870;2022-12-18T10:56:31;97449.75;;;-4.09;95.94
11001;BME280;5553;48.506;8.870;2022-12-18T10:59:03;97428.63;;;-4.16;94.28
11001;BME280;5553;48.506;8.870;2022-12-18T11:01:49;97414.56;;;-3.93;93.51
11001;BME280;5553;48.506;8.870;2022-12-18T11:04:24;97428.41;;;-4.29;93.79
11001;BME280;5553;48.506;8.870;2022-12-18T11:06:54;97428.25;;;-3.43;93.67
11001;BME280;5553;48.506;8.870;2022-12-18T11:09:25;97403.94;;;-3.39;91.99
11001;BME280;5553;48.506;8.870;2022-12-18T11:11:55;97400.94;;;-3.47;90.75
11001;BME280;5553;48.506;8.870;2022-12-18T11:14:26;97421.84;;;-3.52;91.97
11001;BME280;5553;48.506;8.870;2022-12-18T11:16:56;97418.44;;;-3.37;92.32
11001;BME280;5553;48.506;8.870;2022-12-18T11:19:34;97432.06;;;-2.87;92.87
11001;BME280;5553;48.506;8.870;2022-12-18T11:22:18;97422.75;;;-2.59;91.00
11001;BME280;5553;48.506;8.870;2022-12-18T11:24:54;97388.19;;;-2.73;88.95
11001;BME280;5553;48.506;8.870;2022-12-18T11:27:23;97391.13;;;-2.34;87.88
11001;BME280;5553;48.506;8.870;2022-12-18T11:29:52;97383.72;;;-2.41;86.78
11001;BME280;5553;48.506;8.870;2022-12-18T11:32:34;97376.63;;;-2.37;85.95
11001;BME280;5553;48.506;8.870;2022-12-18T11:35:12;97394.53;;;-2.48;87.00
11001;BME280;5553;48.506;8.870;2022-12-18T11:37:47;97387.28;;;-1.70;86.35
11001;BME280;5553;48.506;8.870;2022-12-18T11:40:19;97376.94;;;-1.84;86.02
11001;BME280;5553;48.506;8.870;2022-12-18T11:42:53;97359.53;;;-2.40;85.89
11001;BME280;5553;48.506;8.870;2022-12-18T11:45:31;97404.00;;;-2.04;89.79
11001;BME280;5553;48.506;8.870;2022-12-18T11:48:04;97394.94;;;-1.83;88.25
11001;BME280;5553;48.506;8.870;2022-12-18T11:50:48;97382.84;;;-1.97;87.35
11001;BME280;5553;48.506;8.870;2022-12-18T11:53:18;97379.31;;;-1.96;87.03
11001;BME280;5553;48.506;8.870;2022-12-18T11:55:53;97386.50;;;-2.44;87.32
11001;BME280;5553;48.506;8.870;2022-12-18T11:58:33;97389.06;;;-2.58;87.80
11001;BME280;5553;48.506;8.870;2022-12-18T12:01:13;97387.22;;;-2.56;88.28
11001;BME280;5553;48.506;8.870;2022-12-18T12:03:56;97385.84;;;-2.77;88.48
11001;BME280;5553;48.506;8.870;2022-12-18T12:06:35;97393.00;;;-3.13;89.19
11001;BME280;5553;48.506;8.870;2022-12-18T12:09:10;97400.09;;;-3.00;90.03
11001;BME280;5553;48.506;8.870;2022-12-18T12:11:51;97391.78;;;-3.21;90.81
11001;BME280;5553;48.506;8.870;2022-12-18T12:14:36;97393.53;;;-3.38;92.01
11001;BME280;5553;48.506;8.870;2022-12-18T12:17:13;97411.63;;;-2.92;94.64
11001;BME280;5553;48.506;8.870;2022-12-18T12:19:52;97407.28;;;-3.21;94.08
11001;BME280;5553;48.506;8.870;2022-12-18T12:22:33;97422.72;;;-2.90;95.45
11001;BME280;5553;48.506;8.870;2022-12-18T12:25:16;97426.69;;;-2.84;97.32
11001;BME280;5553;48.506;8.870;2022-12-18T12:27:55;97422.91;;;-3.08;96.97
11001;BME280;5553;48.506;8.870;2022-12-18T12:30:37;97412.41;;;-2.90;96.56
11001;BME280;5553;48.506;8.870;2022-12-18T12:33:17;97411.69;;;-3.23;96.39
11001;BME280;5553;48.506;8.870;2022-12-18T12:35:54;97433.94;;;-2.75;98.30
11001;BME280;5553;48.506;8.870;2022-12-18T12:38:32;97434.09;;;-2.62;98.74
11001;BME280;5553;48.506;8.870;2022-12-18T12:41:05;97434.22;;;-2.79;98.56
11001;BME280;5553;48.506;8.870;2022-12-18T12:43:56;97444.81;;;-2.54;99.03
11001;BME280;5553;48.506;8.870;2022-12-18T12:46:23;97429.53;;;-2.89;98.22
11001;BME280;5553;48.506;8.870;2022-12-18T12:48:55;97442.56;;;-2.60;100.00
11001;BME280;5553;48.506;8.870;2022-12-18T12:51:26;97442.63;;;-2.46;100.00
11001;BME280;5553;48.506;8.870;2022-12-18T12:54:00;97437.66;;;-2.65;100.00
11001;BME280;5553;48.506;8.870;2022-12-18T12:56:36;97437.03;;;-2.84;99.77
11001;BME280;5553;48.506;8.870;2022-12-18T12:59:15;97441.78;;;-2.76;98.74
11001;BME280;5553;48.506;8.870;2022-12-18T13:01:53;97443.06;;;-3.47;98.33
11001;BME280;5553;48.506;8.870;2022-12-18T13:04:27;97460.16;;;-2.97;100.00
11001;BME280;5553;48.506;8.870;2022-12-18T13:07:04;97457.16;;;-3.21;99.84
11001;BME280;5553;48.506;8.870;2022-12-18T13:12:57;97455.16;;;-3.31;100.00
11001;BME280;5553;48.506;8.870;2022-12-18T13:15:35;97470.72;;;-3.17;100.00
11001;BME280;5553;48.506;8.870;2022-12-18T13:18:11;97458.16;;;-3.23;100.00
11001;BME280;5553;48.506;8.870;2022-12-18T13:20:43;97459.31;;;-2.97;100.00
11001;BME280;5553;48.506;8.870;2022-12-18T13:23:28;97464.72;;;-3.02;100.00
11001;BME280;5553;48.506;8.870;2022-12-18T13:26:00;97457.16;;;-3.21;100.00
11001;BME280;5553;48.506;8.870;2022-12-18T13:28:54;97456.50;;;-3.24;100.00
11001;BME280;5553;48.506;8.870;2022-12-18T13:34:30;97457.00;;;-3.67;100.00
11001;BME280;5553;48.506;8.870;2022-12-18T13:39:57;97470.56;;;-3.79;100.00
11001;BME280;5553;48.506;8.870;2022-12-18T13:42:37;97455.69;;;-4.24;100.00
11001;BME280;5553;48.506;8.870;2022-12-18T13:48:22;97463.22;;;-4.37;100.00
11001;BME280;5553;48.506;8.870;2022-12-18T13:51:03;97469.94;;;-4.35;100.00
11001;BME280;5553;48.506;8.870;2022-12-18T13:53:39;97472.38;;;-4.32;100.00
11001;BME280;5553;48.506;8.870;2022-12-18T13:56:15;97469.19;;;-4.54;100.00
11001;BME280;5553;48.506;8.870;2022-12-18T13:58:44;97466.47;;;-4.51;100.00
11001;BME280;5553;48.506;8.870;2022-12-18T14:01:21;97460.59;;;-4.72;100.00
11001;BME280;5553;48.506;8.870;2022-12-18T14:04:08;97467.31;;;-4.87;100.00
11001;BME280;5553;48.506;8.870;2022-12-18T14:06:37;97464.97;;;-4.91;100.00
11001;BME280;5553;48.506;8.870;2022-12-18T14:09:08;97466.88;;;-4.95;100.00
11001;BME280;5553;48.506;8.870;2022-12-18T14:11:38;97462.00;;;-5.01;100.00
11001;BME280;5553;48.506;8.870;2022-12-18T14:14:07;97460.19;;;-4.99;100.00
11001;BME280;5553;48.506;8.870;2022-12-18T14:16:36;97458.78;;;-5.06;100.00
11001;BME280;5553;48.506;8.870;2022-12-18T14:19:12;97462.09;;;-5.21;100.00
11001;BME280;5553;48.506;8.870;2022-12-18T14:21:46;97464.09;;;-5.47;100.00
11001;BME280;5553;48.506;8.870;2022-12-18T14:24:16;97480.19;;;-5.23;100.00
11001;BME280;5553;48.506;8.870;2022-12-18T14:26:46;97476.50;;;-5.55;100.00
11001;BME280;5553;48.506;8.870;2022-12-18T14:29:19;97471.47;;;-5.96;100.00
11001;BME280;5553;48.506;8.870;2022-12-18T14:32:07;97474.25;;;-6.01;100.00
11001;BME280;5553;48.506;8.870;2022-12-18T14:34:38;97476.88;;;-6.02;100.00
11001;BME280;5553;48.506;8.870;2022-12-18T14:37:09;97481.50;;;-6.10;100.00
11001;BME280;5553;48.506;8.870;2022-12-18T14:39:38;97476.44;;;-6.12;100.00
11001;BME280;5553;48.506;8.870;2022-12-18T14:42:10;97480.44;;;-6.05;100.00
11001;BME280;5553;48.506;8.870;2022-12-18T14:44:39;97479.31;;;-6.40;100.00
11001;BME280;5553;48.506;8.870;2022-12-18T14:47:13;97484.34;;;-6.16;100.00
11001;BME280;5553;48.506;8.870;2022-12-18T14:49:45;97476.13;;;-6.45;100.00
11001;BME280;5553;48.506;8.870;2022-12-18T14:52:22;97483.59;;;-6.61;100.00
11001;BME280;5553;48.506;8.870;2022-12-18T14:54:52;97490.31;;;-6.79;100.00
11001;BME280;5553;48.506;8.870;2022-12-18T14:57:22;97491.28;;;-6.81;100.00
11001;BME280;5553;48.506;8.870;2022-12-18T14:59:52;97486.22;;;-6.83;100.00
11001;BME280;5553;48.506;8.870;2022-12-18T15:02:22;97486.50;;;-6.69;100.00
11001;BME280;5553;48.506;8.870;2022-12-18T15:05:05;97493.28;;;-6.68;100.00
11001;BME280;5553;48.506;8.870;2022-12-18T15:07:40;97482.03;;;-6.85;100.00
11001;BME280;5553;48.506;8.870;2022-12-18T15:10:12;97487.75;;;-6.79;100.00
11001;BME280;5553;48.506;8.870;2022-12-18T15:12:43;97488.81;;;-6.84;100.00
11001;BME280;5553;48.506;8.870;2022-12-18T15:18:12;97488.94;;;-6.87;100.00
11001;BME280;5553;48.506;8.870;2022-12-18T15:20:46;97486.31;;;-6.86;100.00
11001;BME280;5553;48.506;8.870;2022-12-18T15:23:20;97484.06;;;-6.94;100.00
11001;BME280;5553;48.506;8.870;2022-12-18T15:25:56;97498.88;;;-7.00;100.00
11001;BME280;5553;48.506;8.870;2022-12-18T15:28:26;97481.66;;;-6.98;100.00
11001;BME280;5553;48.506;8.870;2022-12-18T15:31:21;97488.66;;;-7.24;100.00
11001;BME280;5553;48.506;8.870;2022-12-18T15:34:09;97495.94;;;-7.13;100.00
11001;BME280;5553;48.506;8.870;2022-12-18T15:36:41;97487.97;;;-7.29;100.00
11001;BME280;5553;48.506;8.870;2022-12-18T15:39:11;97490.53;;;-7.29;100.00
11001;BME280;5553;48.506;8.870;2022-12-18T15:41:40;97492.06;;;-7.23;100.00
11001;BME280;5553;48.506;8.870;2022-12-18T15:44:29;97496.38;;;-7.25;100.00
11001;BME280;5553;48.506;8.870;2022-12-18T15:46:55;97495.03;;;-7.34;100.00
11001;BME280;5553;48.506;8.870;2022-12-18T15:49:23;97499.25;;;-7.56;100.00
11001;BME280;5553;48.506;8.870;2022-12-18T15:51:57;97499.00;;;-7.72;100.00
11001;BME280;5553;48.506;8.870;2022-12-18T15:54:26;97502.41;;;-7.72;100.00
11001;BME280;5553;48.506;8.870;2022-12-18T15:57:09;97500.38;;;-7.87;100.00
11001;BME280;5553;48.506;8.870;2022-12-18T15:59:53;97501.19;;;-7.61;100.00
11001;BME280;5553;48.506;8.870;2022-12-18T16:02:23;97515.75;;;-7.87;100.00
11001;BME280;5553;48.506;8.870;2022-12-18T16:04:53;97516.03;;;-7.71;100.00
11001;BME280;5553;48.506;8.870;2022-12-18T16:07:24;97515.00;;;-7.66;100.00
11001;BME280;5553;48.506;8.870;2022-12-18T16:09:52;97515.97;;;-7.70;100.00
11001;BME280;5553;48.506;8.870;2022-12-18T16:12:22;97515.75;;;-7.64;100.00
11001;BME280;5553;48.506;8.870;2022-12-18T16:14:52;97513.91;;;-7.60;100.00
11001;BME280;5553;48.506;8.870;2022-12-18T16:17:20;97519.88;;;-7.59;100.00
11001;BME280;5553;48.506;8.870;2022-12-18T16:19:48;97521.22;;;-7.49;100.00
11001;BME280;5553;48.506;8.870;2022-12-18T16:22:21;97512.53;;;-7.45;100.00
11001;BME280;5553;48.506;8.870;2022-12-18T16:24:53;97505.22;;;-7.32;100.00
11001;BME280;5553;48.506;8.870;2022-12-18T16:27:23;97506.59;;;-7.24;100.00
11001;BME280;5553;48.506;8.870;2022-12-18T16:29:52;97504.75;;;-7.20;100.00
11001;BME280;5553;48.506;8.870;2022-12-18T16:32:21;97502.50;;;-7.28;100.00